createdAt,value
2023-01-09T00:00:45.049Z,59.53
2023-01-09T00:03:15.687Z,59.90
2023-01-09T00:05:47.484Z,55.67
2023-01-09T00:08:18.617Z,58.93
2023-01-09T00:10:50.953Z,57.70
2023-01-09T00:13:19.451Z,60.27
2023-01-09T00:15:49.633Z,59.27
2023-01-09T00:18:18.047Z,58.03
2023-01-09T00:20:47.941Z,53.47
2023-01-09T00:23:18.449Z,60.00
2023-01-09T00:25:46.920Z,58.97
2023-01-09T00:28:15.505Z,55.33
2023-01-09T00:30:44.473Z,54.40
2023-01-09T00:33:16.101Z,59.37
2023-01-09T00:35:45.970Z,59.03
2023-01-09T00:38:16.001Z,55.47
2023-01-09T00:40:44.489Z,56.00
2023-01-09T00:43:13.269Z,53.33
2023-01-09T00:45:41.831Z,50.57
2023-01-09T00:48:14.119Z,57.40
2023-01-09T00:50:45.271Z,58.40
2023-01-09T00:53:18.568Z,55.43
2023-01-09T00:55:47.173Z,51.77
2023-01-09T00:58:23.508Z,49.03
2023-01-09T01:00:51.946Z,53.87
2023-01-09T01:03:20.365Z,58.10
2023-01-09T01:06:06.230Z,53.87
2023-01-09T01:08:36.102Z,55.63
2023-01-09T01:11:06.521Z,53.67
2023-01-09T01:13:34.998Z,50.53
2023-01-09T01:16:06.103Z,52.10
2023-01-09T01:18:34.715Z,46.43
2023-01-09T01:21:06.586Z,54.93
2023-01-09T01:23:38.809Z,54.90
2023-01-09T01:26:08.219Z,49.13
2023-01-09T01:28:36.838Z,49.80
2023-01-09T01:31:06.226Z,54.47
2023-01-09T01:33:35.923Z,50.40
2023-01-09T01:36:05.933Z,50.40
2023-01-09T01:38:38.045Z,45.17
2023-01-09T01:41:12.713Z,51.73
2023-01-09T01:43:55.503Z,46.90
2023-01-09T01:46:24.298Z,46.70
2023-01-09T01:48:55.714Z,49.67
2023-01-09T01:51:26.000Z,45.70
2023-01-09T01:53:59.982Z,50.03
2023-01-09T01:56:35.532Z,53.83
2023-01-09T01:59:07.732Z,50.00
2023-01-09T02:01:38.668Z,48.97
2023-01-09T02:04:09.086Z,45.73
2023-01-09T02:06:40.841Z,51.50
2023-01-09T02:09:13.512Z,46.47
2023-01-09T02:11:46.374Z,46.57
2023-01-09T02:14:15.546Z,46.13
2023-01-09T02:16:54.786Z,49.10
2023-01-09T02:19:58.017Z,52.37
2023-01-09T02:22:37.752Z,51.20
2023-01-09T02:25:36.220Z,49.30
2023-01-09T02:28:46.419Z,52.40
2023-01-09T02:31:22.525Z,49.77
2023-01-09T02:34:00.608Z,47.20
2023-01-09T02:36:36.128Z,50.03
2023-01-09T02:39:22.033Z,46.43
2023-01-09T02:41:54.794Z,47.57
2023-01-09T02:44:26.904Z,43.57
2023-01-09T02:47:05.811Z,45.93
2023-01-09T02:49:36.059Z,44.40
2023-01-09T02:52:19.554Z,43.70
2023-01-09T02:54:56.153Z,45.03
2023-01-09T02:57:37.308Z,44.72
2023-01-09T03:00:12.224Z,45.33
2023-01-09T03:02:54.721Z,43.37
2023-01-09T03:05:28.772Z,41.90
2023-01-09T03:08:03.418Z,42.13
2023-01-09T03:10:37.329Z,38.77
2023-01-09T03:13:14.479Z,38.13
2023-01-09T03:15:48.236Z,38.13
2023-01-09T03:18:25.561Z,42.83
2023-01-09T03:20:56.192Z,39.87
2023-01-09T03:23:24.759Z,37.08
2023-01-09T03:25:53.096Z,44.92
2023-01-09T03:28:29.046Z,39.07
2023-01-09T03:30:59.468Z,43.93
2023-01-09T03:33:30.115Z,39.87
2023-01-09T03:35:58.683Z,38.87
2023-01-09T03:38:27.180Z,42.00
2023-01-09T03:40:55.837Z,35.22
2023-01-09T03:43:26.643Z,40.67
2023-01-09T03:45:55.593Z,37.47
2023-01-09T03:48:24.160Z,38.63
2023-01-09T03:50:56.802Z,37.60
2023-01-09T03:53:27.568Z,41.17
2023-01-09T03:56:01.398Z,32.55
2023-01-09T03:58:32.433Z,37.57
2023-01-09T04:01:02.404Z,39.10
2023-01-09T04:03:31.171Z,38.22
2023-01-09T04:06:01.105Z,38.60
2023-01-09T04:08:30.743Z,39.47
2023-01-09T04:10:59.241Z,36.63
2023-01-09T04:13:30.910Z,37.33
2023-01-09T04:16:01.751Z,41.40
2023-01-09T04:18:32.180Z,39.17
2023-01-09T04:21:02.162Z,39.57
2023-01-09T04:23:30.647Z,37.33
2023-01-09T04:25:59.017Z,40.43
2023-01-09T04:28:27.573Z,38.57
2023-01-09T04:30:58.476Z,37.87
2023-01-09T04:33:26.923Z,39.93
2023-01-09T04:35:55.309Z,34.83
2023-01-09T04:38:25.152Z,41.73
2023-01-09T04:40:53.765Z,39.30
2023-01-09T04:43:23.137Z,34.20
2023-01-09T04:45:53.791Z,37.90
2023-01-09T04:48:22.389Z,40.28
2023-01-09T04:50:50.778Z,40.40
2023-01-09T04:53:19.231Z,36.57
2023-01-09T04:55:49.034Z,35.90
2023-01-09T04:58:17.545Z,34.80
2023-01-09T05:00:47.057Z,38.97
2023-01-09T05:03:20.884Z,40.00
2023-01-09T05:05:51.455Z,34.47
2023-01-09T05:08:21.530Z,38.70
2023-01-09T05:10:51.346Z,37.90
2023-01-09T05:13:19.845Z,36.07
2023-01-09T05:15:49.256Z,36.30
2023-01-09T05:18:17.593Z,34.00
2023-01-09T05:20:46.177Z,37.53
2023-01-09T05:23:16.669Z,32.23
2023-01-09T05:25:48.095Z,39.43
2023-01-09T05:28:22.685Z,37.23
2023-01-09T05:30:54.123Z,34.23
2023-01-09T05:33:24.658Z,37.57
2023-01-09T05:35:55.576Z,30.17
2023-01-09T05:38:24.098Z,33.67
2023-01-09T05:40:52.656Z,31.47
2023-01-09T05:43:22.431Z,33.43
2023-01-09T05:45:50.948Z,34.03
2023-01-09T05:48:19.423Z,35.47
2023-01-09T05:50:53.895Z,34.47
2023-01-09T05:53:22.438Z,30.53
2023-01-09T05:55:55.367Z,36.13
2023-01-09T05:58:30.741Z,37.13
2023-01-09T06:01:00.294Z,31.83
2023-01-09T06:03:28.855Z,35.15
2023-01-09T06:05:57.338Z,33.28
2023-01-09T06:08:26.076Z,32.60
2023-01-09T06:10:57.367Z,35.23
2023-01-09T06:13:27.574Z,34.50
2023-01-09T06:15:59.621Z,32.10
2023-01-09T06:18:28.063Z,35.13
2023-01-09T06:20:58.836Z,31.45
2023-01-09T06:23:27.349Z,33.73
2023-01-09T06:25:59.287Z,33.90
2023-01-09T06:28:31.399Z,33.33
2023-01-09T06:31:02.463Z,32.07
2023-01-09T06:33:32.262Z,30.83
2023-01-09T06:36:00.835Z,33.63
2023-01-09T06:38:29.309Z,30.25
2023-01-09T06:41:00.345Z,32.05
2023-01-09T06:43:30.316Z,34.13
2023-01-09T06:45:59.027Z,34.07
2023-01-09T06:48:28.745Z,33.53
2023-01-09T06:50:57.568Z,34.50
2023-01-09T06:53:26.072Z,30.83
2023-01-09T06:55:54.515Z,28.87
2023-01-09T06:58:23.018Z,35.83
2023-01-09T07:00:55.801Z,33.73
2023-01-09T07:03:26.870Z,33.27
2023-01-09T07:05:55.325Z,31.67
2023-01-09T07:08:23.863Z,33.53
2023-01-09T07:10:52.484Z,32.17
2023-01-09T07:13:23.689Z,31.17
2023-01-09T07:15:56.603Z,32.73
2023-01-09T07:18:25.154Z,33.10
2023-01-09T07:21:07.149Z,33.60
2023-01-09T07:23:40.761Z,29.30
2023-01-09T07:26:21.338Z,38.97
2023-01-09T07:29:17.677Z,31.93
2023-01-09T07:31:55.623Z,32.93
2023-01-09T07:34:24.216Z,28.88
2023-01-09T07:36:56.691Z,28.53
2023-01-09T07:39:41.395Z,33.23
2023-01-09T07:42:14.307Z,29.97
2023-01-09T07:44:42.872Z,30.00
2023-01-09T07:47:14.485Z,27.80
2023-01-09T07:49:49.209Z,29.23
2023-01-09T07:52:17.692Z,33.20
2023-01-09T07:54:46.199Z,29.37
2023-01-09T07:57:21.100Z,27.03
2023-01-09T08:00:03.539Z,28.95
2023-01-09T08:02:47.036Z,27.50
2023-01-09T08:05:20.371Z,28.77
2023-01-09T08:07:57.841Z,28.67
2023-01-09T08:10:29.033Z,25.37
2023-01-09T08:13:09.492Z,27.50
2023-01-09T08:16:04.960Z,31.42
2023-01-09T08:18:48.715Z,31.20
2023-01-09T08:21:47.934Z,26.57
2023-01-09T08:24:22.822Z,29.03
2023-01-09T08:27:07.759Z,30.03
2023-01-09T08:29:40.801Z,30.23
2023-01-09T08:32:23.325Z,30.95
2023-01-09T08:35:05.693Z,27.52
2023-01-09T08:37:35.328Z,26.45
2023-01-09T08:40:07.603Z,26.15
2023-01-09T08:43:04.442Z,28.65
2023-01-09T08:45:53.092Z,27.57
2023-01-09T08:48:24.867Z,24.90
2023-01-09T08:50:58.772Z,28.35
2023-01-09T08:53:34.634Z,25.33
2023-01-09T08:56:06.029Z,25.83
2023-01-09T08:58:35.155Z,22.95
2023-01-09T09:01:07.162Z,24.80
2023-01-09T09:03:35.769Z,25.70
2023-01-09T09:06:09.593Z,26.08
2023-01-09T09:08:38.128Z,26.70
2023-01-09T09:11:06.841Z,27.08
2023-01-09T09:13:37.764Z,26.95
2023-01-09T09:16:06.837Z,26.15
2023-01-09T09:18:40.968Z,27.23
2023-01-09T09:21:13.321Z,28.38
2023-01-09T09:23:42.083Z,24.33
2023-01-09T09:26:10.677Z,24.73
2023-01-09T09:28:39.232Z,25.50
2023-01-09T09:31:12.116Z,24.17
2023-01-09T09:33:42.873Z,25.17
2023-01-09T09:36:12.708Z,23.00
2023-01-09T09:38:41.300Z,26.90
2023-01-09T09:41:53.781Z,23.40
2023-01-09T09:44:53.560Z,25.27
2023-01-09T09:47:42.965Z,28.38
2023-01-09T09:50:23.686Z,26.40
2023-01-09T09:53:00.949Z,23.60
2023-01-09T09:55:33.306Z,23.88
2023-01-09T09:58:06.004Z,25.45
2023-01-09T10:00:35.085Z,26.45
2023-01-09T10:03:08.929Z,23.38
2023-01-09T10:05:41.858Z,25.48
2023-01-09T10:08:25.883Z,24.60
2023-01-09T10:10:57.488Z,24.15
2023-01-09T10:13:44.341Z,26.42
2023-01-09T10:16:23.729Z,24.38
2023-01-09T10:19:03.552Z,26.23
2023-01-09T10:21:41.876Z,26.00
2023-01-09T10:24:24.799Z,22.35
2023-01-09T10:26:58.017Z,25.48
2023-01-09T10:29:41.483Z,25.17
2023-01-09T10:32:32.179Z,24.38
2023-01-09T10:35:22.181Z,25.42
2023-01-09T10:37:54.104Z,24.50
2023-01-09T10:40:30.158Z,22.00
2023-01-09T10:43:04.651Z,25.88
2023-01-09T10:45:39.856Z,23.55
2023-01-09T10:48:23.640Z,24.13
2023-01-09T10:50:59.629Z,22.92
2023-01-09T10:53:31.368Z,23.95
2023-01-09T10:56:11.012Z,26.50
2023-01-09T10:58:39.600Z,26.90
2023-01-09T11:01:10.609Z,26.52
2023-01-09T11:03:39.259Z,27.55
2023-01-09T11:06:20.295Z,29.75
2023-01-09T11:08:50.885Z,30.77
2023-01-09T11:11:35.224Z,32.88
2023-01-09T11:14:14.306Z,29.00
2023-01-09T11:16:53.824Z,28.50
2023-01-09T11:19:22.669Z,29.42
2023-01-09T11:21:51.096Z,25.77
2023-01-09T11:24:31.470Z,30.30
2023-01-09T11:27:27.742Z,27.92
2023-01-09T11:30:27.068Z,32.90
2023-01-09T11:32:57.131Z,35.65
2023-01-09T11:35:34.071Z,36.50
2023-01-09T11:38:09.614Z,30.25
2023-01-09T11:40:47.476Z,31.33
2023-01-09T11:43:23.001Z,30.70
2023-01-09T11:46:01.063Z,34.50
2023-01-09T11:48:41.118Z,34.83
2023-01-09T11:51:24.663Z,33.65
2023-01-09T11:54:07.161Z,35.53
2023-01-09T11:56:39.120Z,35.10
2023-01-09T11:59:15.967Z,38.45
2023-01-09T12:02:25.631Z,34.92
2023-01-09T12:04:57.764Z,36.67
2023-01-09T12:07:52.596Z,44.05
2023-01-09T12:10:41.778Z,35.63
2023-01-09T12:13:23.191Z,39.75
2023-01-09T12:16:01.752Z,38.80
2023-01-09T12:18:48.248Z,38.60
2023-01-09T12:21:26.719Z,40.35
2023-01-09T12:24:10.680Z,36.80
2023-01-09T12:26:45.706Z,35.50
2023-01-09T12:29:31.058Z,40.95
2023-01-09T12:32:14.684Z,40.70
2023-01-09T12:34:59.264Z,39.78
2023-01-09T12:38:09.885Z,38.70
2023-01-09T12:41:07.981Z,39.40
2023-01-09T12:43:43.108Z,42.28
2023-01-09T12:46:17.708Z,39.05
2023-01-09T12:49:08.036Z,42.55
2023-01-09T12:51:42.055Z,39.35
2023-01-09T12:54:18.071Z,40.00
2023-01-09T12:56:50.987Z,39.35
2023-01-09T12:59:31.562Z,40.83
2023-01-09T13:02:07.886Z,41.90
2023-01-09T13:04:41.050Z,42.90
2023-01-09T13:07:17.934Z,47.03
2023-01-09T13:09:51.458Z,43.00
2023-01-09T13:12:23.450Z,39.45
2023-01-09T13:14:56.613Z,43.30
2023-01-09T13:17:31.223Z,41.05
2023-01-09T13:19:59.812Z,42.83
2023-01-09T13:22:30.506Z,43.85
2023-01-09T13:25:33.918Z,39.42
2023-01-09T13:28:07.224Z,43.25
2023-01-09T13:30:52.792Z,41.45
2023-01-09T13:33:23.335Z,39.03
2023-01-09T13:35:53.832Z,42.63
2023-01-09T13:38:25.829Z,46.15
2023-01-09T13:41:40.916Z,40.90
2023-01-09T13:44:25.220Z,36.65
2023-01-09T13:46:56.843Z,38.22
2023-01-09T13:49:50.272Z,39.47
2023-01-09T13:52:36.726Z,38.90
2023-01-09T13:55:35.881Z,36.22
2023-01-09T13:58:27.070Z,36.92
2023-01-09T14:01:01.803Z,34.60
2023-01-09T14:03:35.102Z,37.03
2023-01-09T14:06:17.645Z,38.90
2023-01-09T14:08:51.560Z,35.53
2023-01-09T14:11:27.342Z,36.88
2023-01-09T14:14:15.852Z,36.83
2023-01-09T14:16:45.499Z,39.35
2023-01-09T14:19:33.532Z,36.28
2023-01-09T14:22:03.106Z,36.85
2023-01-09T14:24:34.796Z,36.42
2023-01-09T14:27:04.821Z,37.50
2023-01-09T14:29:43.547Z,36.05
2023-01-09T14:32:42.146Z,37.25
2023-01-09T14:35:30.559Z,37.70
2023-01-09T14:38:24.823Z,35.92
2023-01-09T14:40:57.158Z,38.35
2023-01-09T14:43:34.395Z,38.20
2023-01-09T14:46:11.795Z,36.03
2023-01-09T14:48:52.375Z,43.83
2023-01-09T14:51:23.555Z,34.33
2023-01-09T14:53:54.648Z,37.33
2023-01-09T14:56:28.900Z,39.42
2023-01-09T14:59:13.236Z,38.10
2023-01-09T15:01:45.488Z,35.45
2023-01-09T15:04:34.881Z,35.13
2023-01-09T15:07:04.229Z,38.05
2023-01-09T15:09:39.420Z,38.58
2023-01-09T15:12:11.456Z,41.25
2023-01-09T15:14:45.738Z,38.60
2023-01-09T15:17:21.054Z,36.45
2023-01-09T15:19:50.309Z,39.88
2023-01-09T15:22:24.888Z,40.20
2023-01-09T15:24:53.333Z,46.40
2023-01-09T15:27:27.677Z,44.65
2023-01-09T15:29:57.503Z,52.20
2023-01-09T15:32:31.058Z,41.88
2023-01-09T15:34:59.736Z,42.85
2023-01-09T15:37:31.364Z,43.60
2023-01-09T15:40:02.658Z,38.45
2023-01-09T15:42:52.365Z,38.88
2023-01-09T15:45:25.721Z,39.08
2023-01-09T15:47:54.959Z,38.17
2023-01-09T15:50:28.581Z,39.88
2023-01-09T15:52:57.993Z,37.00
2023-01-09T15:55:35.365Z,38.00
2023-01-09T15:58:04.406Z,34.67
2023-01-09T16:00:45.573Z,37.05
2023-01-09T16:03:23.703Z,40.33
2023-01-09T16:05:55.368Z,38.05
2023-01-09T16:08:30.475Z,36.30
2023-01-09T16:11:03.442Z,37.38
2023-01-09T16:13:36.120Z,37.30
2023-01-09T16:16:07.324Z,36.90
2023-01-09T16:18:38.761Z,39.13
2023-01-09T16:21:36.232Z,38.13
2023-01-09T16:24:22.344Z,38.03
2023-01-09T16:26:53.906Z,42.05
2023-01-09T16:29:35.005Z,42.20
2023-01-09T16:32:07.279Z,45.90
2023-01-09T16:34:44.203Z,39.03
2023-01-09T16:37:15.180Z,41.38
2023-01-09T16:39:48.198Z,47.75
2023-01-09T16:42:34.251Z,43.67
2023-01-09T16:45:03.766Z,46.67
2023-01-09T16:47:35.987Z,45.58
2023-01-09T16:50:05.905Z,54.92
2023-01-09T16:52:34.344Z,41.50
2023-01-09T16:55:06.931Z,47.08
2023-01-09T16:57:36.211Z,42.83
2023-01-09T17:00:05.642Z,47.10
2023-01-09T17:02:35.385Z,51.78
2023-01-09T17:05:04.781Z,46.10
2023-01-09T17:07:34.663Z,45.28
2023-01-09T17:10:04.558Z,43.60
2023-01-09T17:12:33.380Z,46.30
2023-01-09T17:15:02.674Z,41.55
2023-01-09T17:17:31.198Z,45.33
2023-01-09T17:20:07.514Z,47.47
2023-01-09T17:22:36.337Z,46.13
2023-01-09T17:25:22.290Z,49.65
2023-01-09T17:28:11.723Z,41.28
2023-01-09T17:30:40.046Z,46.05
2023-01-09T17:33:16.241Z,44.08
2023-01-09T17:35:46.620Z,45.70
2023-01-09T17:38:16.045Z,44.17
2023-01-09T17:40:45.149Z,46.75
2023-01-09T17:43:14.193Z,42.90
2023-01-09T17:45:43.632Z,43.72
2023-01-09T17:48:18.119Z,44.17
2023-01-09T17:50:49.175Z,43.00
2023-01-09T17:53:20.787Z,44.60
2023-01-09T17:55:49.433Z,43.25
2023-01-09T17:58:27.185Z,47.08
2023-01-09T18:00:55.807Z,47.60
2023-01-09T18:03:26.503Z,50.72
2023-01-09T18:05:56.386Z,54.28
2023-01-09T18:08:24.927Z,49.92
2023-01-09T18:10:55.074Z,48.42
2023-01-09T18:13:23.796Z,46.70
2023-01-09T18:15:56.356Z,49.33
2023-01-09T18:18:25.448Z,49.60
2023-01-09T18:20:55.391Z,50.00
2023-01-09T18:23:24.024Z,48.90
2023-01-09T18:25:52.306Z,45.63
2023-01-09T18:28:20.910Z,50.45
2023-01-09T18:30:56.268Z,45.03
2023-01-09T18:33:24.741Z,47.22
2023-01-09T18:35:53.129Z,48.28
2023-01-09T18:38:25.623Z,46.40
2023-01-09T18:40:59.895Z,49.55
2023-01-09T18:43:29.900Z,49.13
2023-01-09T18:46:00.499Z,49.42
2023-01-09T18:48:33.435Z,46.70
2023-01-09T18:51:08.332Z,50.08
2023-01-09T18:53:38.405Z,50.63
2023-01-09T18:56:07.433Z,51.72
2023-01-09T18:58:35.941Z,50.78
2023-01-09T19:01:06.308Z,52.58
2023-01-09T19:03:35.160Z,60.22
2023-01-09T19:06:06.271Z,59.15
2023-01-09T19:08:36.594Z,57.53
2023-01-09T19:11:07.194Z,58.70
2023-01-09T19:13:38.900Z,84.97
2023-01-09T19:16:09.045Z,121.38
2023-01-09T19:18:40.097Z,95.90
2023-01-09T19:21:16.198Z,60.55
2023-01-09T19:23:46.219Z,60.20
2023-01-09T19:26:21.303Z,56.78
2023-01-09T19:28:55.165Z,60.50
2023-01-09T19:31:24.699Z,56.53
2023-01-09T19:33:58.860Z,56.33
2023-01-09T19:36:28.123Z,60.28
2023-01-09T19:39:00.494Z,59.25
2023-01-09T19:41:33.636Z,61.60
2023-01-09T19:44:02.623Z,58.08
2023-01-09T19:46:34.767Z,56.05
2023-01-09T19:49:06.256Z,56.08
2023-01-09T19:51:37.109Z,55.28
2023-01-09T19:56:37.517Z,62.33
2023-01-09T19:59:06.803Z,56.33
2023-01-09T20:01:38.887Z,56.38
2023-01-09T20:04:13.517Z,54.92
2023-01-09T20:06:43.953Z,53.65
2023-01-09T20:09:13.605Z,56.25
2023-01-09T20:11:44.958Z,55.92
2023-01-09T20:14:14.412Z,54.60
2023-01-09T20:16:43.619Z,58.38
2023-01-09T20:19:14.327Z,56.13
2023-01-09T20:21:43.696Z,57.92
2023-01-09T20:24:16.958Z,61.72
2023-01-09T20:26:47.353Z,58.33
2023-01-09T20:29:16.959Z,61.90
2023-01-09T20:31:45.767Z,61.65
2023-01-09T20:34:15.466Z,63.35
2023-01-09T20:36:44.501Z,60.05
2023-01-09T20:39:13.685Z,52.42
2023-01-09T20:41:42.534Z,52.72
2023-01-09T20:44:14.453Z,53.70
2023-01-09T20:46:44.877Z,54.33
2023-01-09T20:49:16.138Z,51.00
2023-01-09T20:51:46.896Z,54.42
2023-01-09T20:54:15.617Z,51.70
2023-01-09T20:56:44.358Z,52.13
2023-01-09T20:59:17.085Z,69.60
2023-01-09T21:01:45.555Z,74.95
2023-01-09T21:04:14.128Z,72.15
2023-01-09T21:06:42.642Z,76.60
2023-01-09T21:09:11.211Z,75.35
2023-01-09T21:11:42.039Z,78.22
2023-01-09T21:14:11.176Z,80.32
2023-01-09T21:16:41.158Z,86.07
2023-01-09T21:19:11.035Z,79.72
2023-01-09T21:21:39.511Z,87.90
2023-01-09T21:24:08.843Z,82.35
2023-01-09T21:26:37.410Z,85.07
2023-01-09T21:29:15.039Z,83.10
2023-01-09T21:31:47.115Z,83.57
2023-01-09T21:34:20.018Z,81.15
2023-01-09T21:36:48.960Z,80.72
2023-01-09T21:39:21.115Z,78.88
2023-01-09T21:42:03.530Z,74.97
2023-01-09T21:44:49.759Z,76.72
2023-01-09T21:47:23.164Z,72.07
2023-01-09T21:49:51.919Z,75.55
2023-01-09T21:52:21.067Z,71.78
2023-01-09T21:54:49.942Z,70.53
2023-01-09T21:57:18.920Z,83.07
2023-01-09T21:59:47.707Z,74.32
2023-01-09T22:02:19.869Z,74.88
2023-01-09T22:04:51.644Z,68.85
2023-01-09T22:07:20.524Z,72.70
2023-01-09T22:09:48.989Z,75.45
2023-01-09T22:12:17.489Z,74.55
2023-01-09T22:14:45.884Z,73.30
2023-01-09T22:17:14.338Z,72.78
2023-01-09T22:19:42.759Z,73.80
2023-01-09T22:22:15.532Z,80.25
2023-01-09T22:24:46.106Z,80.53
2023-01-09T22:27:16.554Z,80.38
2023-01-09T22:29:44.975Z,84.30
2023-01-09T22:32:13.399Z,85.40
2023-01-09T22:34:41.841Z,77.47
2023-01-09T22:37:10.550Z,82.72
2023-01-09T22:39:40.280Z,74.65
2023-01-09T22:42:08.696Z,87.45
2023-01-09T22:44:38.824Z,83.90
2023-01-09T22:47:07.207Z,83.88
2023-01-09T22:49:51.981Z,86.28
2023-01-09T22:52:21.491Z,82.03
2023-01-09T22:54:51.310Z,87.82
2023-01-09T22:57:19.829Z,82.28
2023-01-09T22:59:48.136Z,81.28
2023-01-09T23:02:16.719Z,75.75
2023-01-09T23:04:45.118Z,75.38
2023-01-09T23:07:13.539Z,78.28
2023-01-09T23:09:41.982Z,77.90
2023-01-09T23:12:14.337Z,79.82
2023-01-09T23:14:42.689Z,77.00
2023-01-09T23:17:12.272Z,85.40
2023-01-09T23:19:43.663Z,80.40
2023-01-09T23:22:12.220Z,80.40
2023-01-09T23:24:42.548Z,83.70
2023-01-09T23:27:12.325Z,76.28
2023-01-09T23:29:40.723Z,82.32
2023-01-09T23:32:09.234Z,75.60
2023-01-09T23:34:37.718Z,78.25
2023-01-09T23:37:10.720Z,73.15
2023-01-09T23:39:39.388Z,77.03
2023-01-09T23:42:24.974Z,72.28
2023-01-09T23:44:54.728Z,80.10
2023-01-09T23:47:23.159Z,80.15
2023-01-09T23:49:51.616Z,75.45
2023-01-09T23:52:20.040Z,80.30
2023-01-09T23:54:48.478Z,79.28
2023-01-09T23:57:16.914Z,80.35
2023-01-09T23:59:45.288Z,64.78
